createdAt,value
2023-05-20T00:02:04.212Z,4.38
2023-05-20T00:04:37.459Z,4.72
2023-05-20T00:07:10.937Z,4.15
2023-05-20T00:09:44.224Z,4.00
2023-05-20T00:12:17.534Z,4.63
2023-05-20T00:14:53.777Z,3.80
2023-05-20T00:17:28.565Z,4.65
2023-05-20T00:20:01.945Z,4.22
2023-05-20T00:22:35.251Z,3.97
2023-05-20T00:25:09.216Z,4.53
2023-05-20T00:27:42.712Z,3.97
2023-05-20T00:30:17.334Z,4.05
2023-05-20T00:32:50.758Z,4.65
2023-05-20T00:35:24.296Z,4.22
2023-05-20T00:37:57.678Z,4.22
2023-05-20T00:40:31.058Z,3.83
2023-05-20T00:43:04.342Z,5.03
2023-05-20T00:45:39.651Z,4.15
2023-05-20T00:48:13.136Z,4.25
2023-05-20T00:50:46.531Z,3.95
2023-05-20T00:53:21.298Z,4.38
2023-05-20T00:55:54.693Z,3.75
2023-05-20T00:58:28.135Z,4.43
2023-05-20T01:01:02.893Z,3.47
2023-05-20T01:03:36.458Z,3.78
2023-05-20T01:06:09.913Z,4.75
2023-05-20T01:08:43.421Z,4.25
2023-05-20T01:11:23.673Z,4.28
2023-05-20T01:14:02.439Z,3.78
2023-05-20T01:16:38.962Z,4.43
2023-05-20T01:19:23.279Z,4.57
2023-05-20T01:21:57.893Z,3.75
2023-05-20T01:24:32.857Z,4.50
2023-05-20T01:27:10.582Z,4.13
2023-05-20T01:29:48.302Z,3.95
2023-05-20T01:32:24.489Z,4.70
2023-05-20T01:34:59.016Z,3.80
2023-05-20T01:37:33.637Z,4.25
2023-05-20T01:40:10.634Z,3.85
2023-05-20T01:42:46.025Z,3.88
2023-05-20T01:45:20.377Z,3.83
2023-05-20T01:47:53.684Z,3.83
2023-05-20T01:50:27.003Z,4.35
2023-05-20T01:53:00.562Z,3.78
2023-05-20T01:55:35.632Z,3.67
2023-05-20T01:58:09.067Z,4.13
2023-05-20T02:03:16.240Z,3.65
2023-05-20T02:05:49.655Z,4.10
2023-05-20T02:08:23.114Z,3.88
2023-05-20T02:10:57.742Z,3.50
2023-05-20T02:13:31.375Z,4.18
2023-05-20T02:16:04.781Z,4.22
2023-05-20T02:18:38.560Z,4.18
2023-05-20T02:21:12.060Z,4.20
2023-05-20T02:23:45.377Z,3.58
2023-05-20T02:26:20.749Z,4.10
2023-05-20T02:28:54.051Z,4.32
2023-05-20T02:31:28.372Z,4.38
2023-05-20T02:34:02.990Z,4.10
2023-05-20T02:36:36.451Z,4.07
2023-05-20T02:39:10.164Z,4.07
2023-05-20T02:41:44.831Z,3.85
2023-05-20T02:44:18.164Z,4.03
2023-05-20T02:46:51.458Z,3.67
2023-05-20T02:49:25.058Z,3.47
2023-05-20T02:51:58.819Z,4.40
2023-05-20T02:54:32.453Z,4.20
2023-05-20T02:57:07.475Z,3.85
2023-05-20T02:59:40.775Z,3.88
2023-05-20T03:02:14.116Z,4.13
2023-05-20T03:04:47.803Z,4.05
2023-05-20T03:09:55.642Z,4.05
2023-05-20T03:12:30.771Z,4.00
2023-05-20T03:15:04.107Z,4.35
2023-05-20T03:17:37.791Z,4.25
2023-05-20T03:20:12.852Z,3.60
2023-05-20T03:22:47.267Z,3.60
2023-05-20T03:25:20.917Z,4.00
2023-05-20T03:27:55.606Z,4.38
2023-05-20T03:30:29.149Z,4.15
2023-05-20T03:33:03.917Z,4.18
2023-05-20T03:35:37.418Z,4.05
2023-05-20T03:43:20.034Z,3.75
2023-05-20T03:45:53.282Z,4.03
2023-05-20T03:48:26.538Z,3.92
2023-05-20T03:51:00.117Z,4.35
2023-05-20T03:53:33.448Z,4.28
2023-05-20T03:56:07.571Z,4.32
2023-05-20T03:58:44.265Z,3.90
2023-05-20T04:01:17.996Z,4.35
2023-05-20T04:03:51.284Z,4.53
2023-05-20T04:06:24.753Z,4.53
2023-05-20T04:08:58.024Z,4.35
2023-05-20T04:11:31.292Z,4.25
2023-05-20T04:14:05.963Z,3.90
2023-05-20T04:16:39.714Z,3.67
2023-05-20T04:19:13.339Z,4.20
2023-05-20T04:21:46.755Z,3.55
2023-05-20T04:24:25.077Z,4.25
2023-05-20T04:26:58.550Z,4.20
2023-05-20T04:29:35.663Z,4.13
2023-05-20T04:32:11.071Z,3.40
2023-05-20T04:34:45.212Z,3.42
2023-05-20T04:37:20.052Z,4.00
2023-05-20T04:39:53.503Z,3.55
2023-05-20T04:42:27.922Z,3.85
2023-05-20T04:45:05.707Z,3.88
2023-05-20T04:47:40.458Z,3.67
2023-05-20T04:50:14.789Z,4.20
2023-05-20T04:52:48.268Z,4.25
2023-05-20T04:55:21.950Z,3.60
2023-05-20T05:00:29.768Z,4.05
2023-05-20T05:03:04.252Z,3.85
2023-05-20T05:05:38.862Z,3.47
2023-05-20T05:08:12.650Z,3.55
2023-05-20T05:10:51.147Z,3.70
2023-05-20T05:13:24.551Z,3.92
2023-05-20T05:16:03.498Z,3.67
2023-05-20T05:18:38.471Z,3.95
2023-05-20T05:21:11.734Z,3.53
2023-05-20T05:23:45.150Z,3.53
2023-05-20T05:26:18.749Z,3.38
2023-05-20T05:28:51.985Z,4.07
2023-05-20T05:31:26.609Z,3.50
2023-05-20T05:34:00.101Z,3.85
2023-05-20T05:36:34.838Z,3.90
2023-05-20T05:39:08.178Z,3.47
2023-05-20T05:41:42.761Z,3.72
2023-05-20T05:44:16.261Z,3.40
2023-05-20T05:46:51.070Z,3.20
2023-05-20T05:49:24.426Z,3.45
2023-05-20T05:51:57.756Z,3.80
2023-05-20T05:54:31.696Z,3.40
2023-05-20T05:57:06.598Z,3.55
2023-05-20T05:59:41.458Z,3.22
2023-05-20T06:02:16.672Z,3.47
2023-05-20T06:04:50.038Z,3.28
2023-05-20T06:12:32.141Z,3.75
2023-05-20T06:15:06.969Z,3.40
2023-05-20T06:17:41.983Z,3.40
2023-05-20T06:20:16.704Z,3.30
2023-05-20T06:22:50.280Z,3.60
2023-05-20T06:25:23.963Z,3.22
2023-05-20T06:27:57.613Z,3.45
2023-05-20T06:30:31.244Z,3.60
2023-05-20T06:33:06.289Z,3.75
2023-05-20T06:35:39.576Z,3.42
2023-05-20T06:38:13.301Z,3.90
2023-05-20T06:40:47.741Z,3.70
2023-05-20T06:43:21.034Z,3.55
2023-05-20T06:46:14.578Z,3.40
2023-05-20T06:48:57.912Z,3.08
2023-05-20T06:51:31.446Z,3.50
2023-05-20T06:54:06.154Z,3.83
2023-05-20T06:56:39.473Z,3.47
2023-05-20T06:59:13.147Z,3.22
2023-05-20T07:01:46.543Z,3.38
2023-05-20T07:04:21.920Z,3.30
2023-05-20T07:06:55.407Z,3.70
2023-05-20T07:09:29.175Z,2.92
2023-05-20T07:12:02.486Z,3.60
2023-05-20T07:14:36.724Z,4.65
2023-05-20T07:17:10.076Z,4.50
2023-05-20T07:19:45.927Z,4.95
2023-05-20T07:22:19.264Z,5.05
2023-05-20T07:25:06.653Z,4.53
2023-05-20T07:27:42.438Z,4.65
2023-05-20T07:30:15.695Z,4.47
2023-05-20T07:32:55.103Z,4.70
2023-05-20T07:35:29.711Z,4.63
2023-05-20T07:38:02.962Z,5.00
2023-05-20T07:40:38.936Z,4.82
2023-05-20T07:43:12.472Z,5.32
2023-05-20T07:45:45.860Z,4.95
2023-05-20T07:48:19.193Z,4.35
2023-05-20T07:50:53.835Z,4.95
2023-05-20T07:53:27.627Z,4.72
2023-05-20T07:56:01.358Z,4.72
2023-05-20T07:58:36.136Z,4.55
2023-05-20T08:01:10.082Z,4.53
2023-05-20T08:03:43.595Z,4.93
2023-05-20T08:06:22.267Z,4.30
2023-05-20T08:08:56.049Z,5.82
2023-05-20T08:11:35.392Z,6.05
2023-05-20T08:14:09.083Z,6.95
2023-05-20T08:16:47.294Z,6.85
2023-05-20T08:19:20.763Z,8.57
2023-05-20T08:21:56.906Z,9.30
2023-05-20T08:24:30.969Z,7.85
2023-05-20T08:27:05.242Z,7.78
2023-05-20T08:29:39.241Z,8.18
2023-05-20T08:32:12.873Z,8.15
2023-05-20T08:34:46.147Z,7.43
2023-05-20T08:37:20.875Z,7.07
2023-05-20T08:39:54.119Z,7.50
2023-05-20T08:42:27.851Z,7.25
2023-05-20T08:45:03.015Z,8.45
2023-05-20T08:47:40.108Z,7.30
2023-05-20T08:50:15.071Z,6.35
2023-05-20T08:52:50.018Z,6.93
2023-05-20T08:55:27.104Z,7.20
2023-05-20T08:58:00.395Z,7.18
2023-05-20T09:00:33.653Z,7.28
2023-05-20T09:03:06.978Z,6.40
2023-05-20T09:05:40.843Z,6.35
2023-05-20T09:10:48.699Z,6.30
2023-05-20T09:13:23.771Z,6.97
2023-05-20T09:15:57.325Z,7.15
2023-05-20T09:18:31.505Z,7.80
2023-05-20T09:21:07.178Z,6.70
2023-05-20T09:23:42.060Z,5.93
2023-05-20T09:26:15.329Z,6.18
2023-05-20T09:28:48.624Z,6.53
2023-05-20T09:31:22.424Z,6.70
2023-05-20T09:36:31.815Z,6.45
2023-05-20T09:39:09.967Z,5.38
2023-05-20T09:41:50.662Z,7.07
2023-05-20T09:44:24.392Z,6.40
2023-05-20T09:46:59.224Z,6.45
2023-05-20T09:49:33.584Z,6.75
2023-05-20T09:52:07.742Z,6.43
2023-05-20T09:54:43.898Z,5.70
2023-05-20T09:57:17.580Z,6.28
2023-05-20T09:59:52.818Z,6.07
2023-05-20T10:02:26.150Z,6.75
2023-05-20T10:05:04.094Z,6.32
2023-05-20T10:08:10.548Z,7.00
2023-05-20T10:10:51.108Z,5.05
2023-05-20T10:13:39.853Z,6.30
2023-05-20T10:16:30.146Z,7.03
2023-05-20T10:19:12.684Z,5.97
2023-05-20T10:21:46.116Z,6.97
2023-05-20T10:24:31.513Z,6.55
2023-05-20T10:27:09.949Z,40.55
2023-05-20T10:29:45.061Z,31.08
2023-05-20T10:32:26.660Z,16.23
2023-05-20T10:35:02.224Z,17.52
2023-05-20T10:37:42.897Z,14.73
2023-05-20T10:40:19.524Z,15.30
2023-05-20T10:42:54.732Z,15.45
2023-05-20T10:45:29.577Z,13.70
2023-05-20T10:48:02.939Z,13.52
2023-05-20T10:50:38.374Z,13.20
2023-05-20T10:53:29.344Z,11.77
2023-05-20T10:56:07.478Z,13.43
2023-05-20T10:58:42.149Z,12.70
2023-05-20T11:01:16.391Z,13.35
2023-05-20T11:03:51.394Z,12.48
2023-05-20T11:06:28.461Z,11.32
2023-05-20T11:09:06.542Z,10.95
2023-05-20T11:11:39.894Z,11.88
2023-05-20T11:14:15.169Z,10.65
2023-05-20T11:16:53.193Z,9.57
2023-05-20T11:19:27.568Z,10.15
2023-05-20T11:22:01.094Z,10.13
2023-05-20T11:24:34.385Z,9.38
2023-05-20T11:27:08.317Z,9.13
2023-05-20T11:29:43.656Z,11.23
2023-05-20T11:32:17.300Z,10.45
2023-05-20T11:34:53.269Z,8.75
2023-05-20T11:37:26.953Z,9.68
2023-05-20T11:40:09.450Z,11.02
2023-05-20T11:42:46.303Z,9.63
2023-05-20T11:45:21.085Z,9.95
2023-05-20T11:48:02.266Z,9.98
2023-05-20T11:50:36.968Z,9.88
2023-05-20T11:53:11.576Z,10.02
2023-05-20T11:55:49.845Z,10.90
2023-05-20T11:58:24.897Z,10.57
2023-05-20T12:01:09.475Z,10.35
2023-05-20T12:03:53.546Z,12.10
2023-05-20T12:06:27.390Z,13.95
2023-05-20T12:09:06.810Z,15.00
2023-05-20T12:11:41.676Z,13.55
2023-05-20T12:14:15.439Z,12.55
2023-05-20T12:16:50.337Z,13.18
2023-05-20T12:19:23.623Z,13.55
2023-05-20T12:21:56.999Z,13.68
2023-05-20T12:24:30.372Z,12.50
2023-05-20T12:27:04.159Z,12.18
2023-05-20T12:32:11.943Z,12.68
2023-05-20T12:34:45.288Z,12.82
2023-05-20T12:37:18.601Z,11.50
2023-05-20T12:39:52.099Z,12.07
2023-05-20T12:42:25.974Z,10.98
2023-05-20T12:44:59.254Z,11.02
2023-05-20T12:47:34.691Z,12.05
2023-05-20T12:50:08.891Z,11.38
2023-05-20T12:52:42.144Z,11.02
2023-05-20T12:55:15.702Z,11.18
2023-05-20T12:57:49.067Z,11.50
2023-05-20T13:00:22.293Z,9.82
2023-05-20T13:02:56.967Z,10.20
2023-05-20T13:05:30.251Z,9.45
2023-05-20T13:08:03.535Z,11.13
2023-05-20T13:10:37.059Z,10.18
2023-05-20T13:15:43.801Z,9.55
2023-05-20T13:18:19.341Z,10.25
2023-05-20T13:20:52.572Z,9.85
2023-05-20T13:23:25.825Z,9.75
2023-05-20T13:25:59.145Z,9.48
2023-05-20T13:28:32.508Z,9.25
2023-05-20T13:31:07.368Z,8.48
2023-05-20T13:33:41.999Z,9.13
2023-05-20T13:36:15.484Z,8.68
2023-05-20T13:38:48.722Z,8.80
2023-05-20T13:41:22.020Z,9.52
2023-05-20T13:43:55.815Z,9.35
2023-05-20T13:46:31.682Z,8.55
2023-05-20T13:49:06.455Z,8.70
2023-05-20T13:51:39.880Z,8.85
2023-05-20T13:54:13.193Z,9.07
2023-05-20T13:56:46.522Z,9.48
2023-05-20T13:59:19.882Z,9.23
2023-05-20T14:01:54.668Z,8.30
2023-05-20T14:04:31.140Z,8.70
2023-05-20T14:07:06.180Z,9.18
2023-05-20T14:09:41.052Z,8.70
2023-05-20T14:12:14.344Z,8.57
2023-05-20T14:14:47.561Z,8.77
2023-05-20T14:17:20.956Z,8.35
2023-05-20T14:19:55.676Z,9.15
2023-05-20T14:22:28.916Z,8.75
2023-05-20T14:25:02.236Z,9.48
2023-05-20T14:27:36.206Z,8.45
2023-05-20T14:30:10.766Z,8.63
2023-05-20T14:32:44.148Z,9.52
2023-05-20T14:35:18.808Z,9.95
2023-05-20T14:37:52.221Z,9.02
2023-05-20T14:40:25.570Z,8.68
2023-05-20T14:42:58.862Z,9.68
2023-05-20T14:45:32.047Z,9.07
2023-05-20T14:48:06.944Z,8.95
2023-05-20T14:50:41.747Z,9.63
2023-05-20T14:53:15.179Z,8.63
2023-05-20T14:55:48.543Z,8.63
2023-05-20T14:58:21.828Z,8.55
2023-05-20T15:00:55.063Z,9.00
2023-05-20T15:03:28.607Z,9.55
2023-05-20T15:06:03.512Z,9.98
2023-05-20T15:08:36.967Z,9.93
2023-05-20T15:11:10.213Z,9.10
2023-05-20T15:13:44.215Z,9.98
2023-05-20T15:16:19.308Z,9.93
2023-05-20T15:18:52.988Z,10.65
2023-05-20T15:21:27.676Z,9.90
2023-05-20T15:24:01.347Z,9.32
2023-05-20T15:26:34.818Z,9.32
2023-05-20T15:29:08.366Z,9.80
2023-05-20T15:31:41.829Z,9.52
2023-05-20T15:34:15.200Z,9.35
2023-05-20T15:36:49.905Z,10.10
2023-05-20T15:39:23.142Z,9.65
2023-05-20T15:41:59.461Z,10.90
2023-05-20T15:44:32.900Z,9.38
2023-05-20T15:47:06.446Z,10.07
2023-05-20T15:49:39.873Z,8.98
2023-05-20T15:52:14.746Z,9.05
2023-05-20T15:54:48.008Z,9.73
2023-05-20T15:57:21.234Z,9.38
2023-05-20T15:59:54.527Z,9.40
2023-05-20T16:02:28.239Z,10.90
2023-05-20T16:05:01.821Z,9.48
2023-05-20T16:07:36.646Z,9.73
2023-05-20T16:10:11.414Z,9.35
2023-05-20T16:12:44.732Z,10.43
2023-05-20T16:15:18.090Z,10.30
2023-05-20T16:17:51.493Z,11.45
2023-05-20T16:20:25.006Z,10.52
2023-05-20T16:22:59.619Z,11.77
2023-05-20T16:25:32.846Z,10.68
2023-05-20T16:28:06.106Z,11.77
2023-05-20T16:30:39.626Z,11.57
2023-05-20T16:33:13.319Z,11.30
2023-05-20T16:38:21.192Z,11.13
2023-05-20T16:40:54.464Z,10.85
2023-05-20T16:43:27.723Z,11.65
2023-05-20T16:46:01.077Z,11.52
2023-05-20T16:48:34.593Z,12.25
2023-05-20T16:51:07.800Z,12.55
2023-05-20T16:53:42.401Z,11.75
2023-05-20T16:56:15.743Z,11.73
2023-05-20T16:58:50.626Z,11.18
2023-05-20T17:01:26.099Z,11.88
2023-05-20T17:03:59.449Z,12.75
2023-05-20T17:06:34.493Z,11.50
2023-05-20T17:09:09.499Z,12.50
2023-05-20T17:11:42.902Z,12.20
2023-05-20T17:14:16.223Z,11.20
2023-05-20T17:16:49.515Z,11.90
2023-05-20T17:19:22.897Z,12.02
2023-05-20T17:21:56.248Z,12.20
2023-05-20T17:24:30.998Z,11.55
2023-05-20T17:27:06.029Z,11.68
2023-05-20T17:29:39.348Z,10.88
2023-05-20T17:32:13.114Z,12.75
2023-05-20T17:37:19.725Z,13.20
2023-05-20T17:39:54.360Z,12.77
2023-05-20T17:42:27.808Z,12.50
2023-05-20T17:45:01.337Z,13.27
2023-05-20T17:47:35.316Z,13.55
2023-05-20T17:50:10.144Z,13.13
2023-05-20T17:52:43.434Z,13.55
2023-05-20T17:55:19.392Z,15.40
2023-05-20T17:57:52.912Z,14.25
2023-05-20T18:00:26.613Z,13.18
2023-05-20T18:03:00.441Z,12.82
2023-05-20T18:05:34.230Z,13.57
2023-05-20T18:08:07.730Z,13.48
2023-05-20T18:10:42.460Z,14.00
2023-05-20T18:13:15.857Z,13.65
2023-05-20T18:15:49.258Z,13.43
2023-05-20T18:18:22.539Z,13.45
2023-05-20T18:20:55.847Z,14.35
2023-05-20T18:23:29.084Z,15.35
2023-05-20T18:26:06.849Z,13.73
2023-05-20T18:28:40.540Z,14.43
2023-05-20T18:33:47.140Z,17.40
2023-05-20T18:36:20.571Z,18.33
2023-05-20T18:38:54.030Z,18.13
2023-05-20T18:41:39.531Z,17.42
2023-05-20T18:44:20.009Z,21.02
2023-05-20T18:46:57.359Z,18.70
2023-05-20T18:49:30.985Z,18.92
2023-05-20T18:52:04.454Z,19.50
2023-05-20T18:54:37.845Z,19.42
2023-05-20T18:57:12.648Z,20.52
2023-05-20T18:59:45.991Z,20.92
2023-05-20T19:02:19.358Z,19.65
2023-05-20T19:04:52.659Z,19.98
2023-05-20T19:07:25.991Z,18.52
2023-05-20T19:09:59.226Z,18.63
2023-05-20T19:12:33.879Z,16.52
2023-05-20T19:15:08.325Z,18.30
2023-05-20T19:17:41.652Z,15.38
2023-05-20T19:20:15.023Z,16.48
2023-05-20T19:22:48.342Z,16.60
2023-05-20T19:25:21.590Z,15.18
2023-05-20T19:27:56.181Z,16.23
2023-05-20T19:30:29.482Z,14.10
2023-05-20T19:33:05.193Z,13.55
2023-05-20T19:35:38.651Z,15.80
2023-05-20T19:38:12.472Z,13.93
2023-05-20T19:43:21.894Z,13.27
2023-05-20T19:45:55.203Z,14.38
2023-05-20T19:48:28.458Z,14.88
2023-05-20T19:51:02.060Z,13.85
2023-05-20T19:53:35.459Z,13.80
2023-05-20T19:56:08.880Z,13.50
2023-05-20T19:58:43.576Z,12.02
2023-05-20T20:01:17.583Z,13.65
2023-05-20T20:03:51.621Z,12.63
2023-05-20T20:06:24.943Z,11.73
2023-05-20T20:08:58.243Z,12.45
2023-05-20T20:11:31.439Z,13.13
2023-05-20T20:14:06.218Z,11.85
2023-05-20T20:16:39.508Z,11.65
2023-05-20T20:19:12.845Z,11.82
2023-05-20T20:21:48.280Z,11.40
2023-05-20T20:24:21.894Z,12.13
2023-05-20T20:26:56.906Z,11.07
2023-05-20T20:29:31.744Z,11.32
2023-05-20T20:32:05.571Z,11.95
2023-05-20T20:37:15.117Z,10.75
2023-05-20T20:39:50.088Z,11.27
2023-05-20T20:42:23.563Z,10.60
2023-05-20T20:44:58.189Z,11.55
2023-05-20T20:47:31.686Z,12.40
2023-05-20T20:50:05.205Z,9.95
2023-05-20T20:52:39.789Z,10.30
2023-05-20T20:55:13.386Z,10.98
2023-05-20T20:57:48.013Z,9.90
2023-05-20T21:00:24.414Z,10.23
2023-05-20T21:02:57.692Z,10.95
2023-05-20T21:05:31.083Z,9.63
2023-05-20T21:08:04.765Z,10.57
2023-05-20T21:10:38.203Z,10.93
2023-05-20T21:13:11.531Z,10.23
2023-05-20T21:15:46.508Z,9.27
2023-05-20T21:18:21.878Z,9.27
2023-05-20T21:20:56.569Z,9.50
2023-05-20T21:23:29.857Z,10.05
2023-05-20T21:26:03.137Z,9.60
2023-05-20T21:28:36.502Z,8.77
2023-05-20T21:31:11.337Z,9.90
2023-05-20T21:33:44.654Z,9.35
2023-05-20T21:36:18.094Z,9.73
2023-05-20T21:38:51.378Z,9.35
2023-05-20T21:41:24.693Z,9.68
2023-05-20T21:43:58.017Z,8.77
2023-05-20T21:46:32.632Z,9.45
2023-05-20T21:49:05.985Z,8.80
2023-05-20T21:51:39.244Z,9.57
2023-05-20T21:54:12.474Z,9.82
2023-05-20T21:56:45.696Z,9.20
2023-05-20T21:59:18.989Z,10.52
2023-05-20T22:01:54.372Z,9.15
2023-05-20T22:04:28.611Z,8.68
2023-05-20T22:07:02.006Z,9.25
2023-05-20T22:09:35.483Z,9.63
2023-05-20T22:12:11.125Z,8.68
2023-05-20T22:14:44.436Z,8.95
2023-05-20T22:17:19.148Z,8.98
2023-05-20T22:19:53.642Z,8.30
2023-05-20T22:22:27.229Z,8.63
2023-05-20T22:25:00.563Z,9.10
2023-05-20T22:27:34.980Z,8.25
2023-05-20T22:30:09.986Z,9.43
2023-05-20T22:32:44.993Z,9.15
2023-05-20T22:35:18.423Z,8.32
2023-05-20T22:37:51.970Z,8.95
2023-05-20T22:40:25.231Z,8.55
2023-05-20T22:42:58.480Z,8.55
2023-05-20T22:45:31.751Z,7.95
2023-05-20T22:48:06.826Z,8.57
2023-05-20T22:50:40.286Z,8.15
2023-05-20T22:53:13.591Z,8.05
2023-05-20T22:55:47.021Z,7.90
2023-05-20T22:58:20.318Z,7.78
2023-05-20T23:00:53.737Z,8.32
2023-05-20T23:03:29.497Z,7.97
2023-05-20T23:06:02.930Z,7.68
2023-05-20T23:08:36.150Z,7.28
2023-05-20T23:11:09.369Z,8.32
2023-05-20T23:13:42.618Z,7.55
2023-05-20T23:16:16.019Z,8.32
2023-05-20T23:18:50.626Z,8.57
2023-05-20T23:21:24.231Z,7.15
2023-05-20T23:23:57.521Z,6.82
2023-05-20T23:26:31.532Z,8.27
2023-05-20T23:29:04.953Z,7.78
2023-05-20T23:31:38.445Z,7.40
2023-05-20T23:34:13.129Z,8.02
2023-05-20T23:36:46.766Z,7.45
2023-05-20T23:39:19.994Z,7.57
2023-05-20T23:41:53.273Z,6.90
2023-05-20T23:44:26.547Z,7.07
2023-05-20T23:47:00.876Z,7.18
2023-05-20T23:49:35.506Z,7.45
2023-05-20T23:52:08.828Z,7.15
2023-05-20T23:54:42.072Z,7.30
2023-05-20T23:57:16.119Z,7.47
2023-05-20T23:59:49.753Z,6.90
